Time;durP1;ratioP1;P1;durP2;ratioP2;P2;SDS_P1;SDS_P2;PMS_P1;PMS_P2;Temp;Humidity;BMP_temperature;BMP_pressure;BME280_temperature;BME280_humidity;BME280_pressure;Samples;Min_cycle;Max_cycle;Signal;HPM_P1;HPM_P2
2024/01/20 00:02:21;;;;;;;4.35;3.55;;;;;;;;;;6208560;28;20061;-75
2024/01/20 00:05:24;;;;;;;4.55;4.07;;;;;;;;;;6213237;28;20087;-75
2024/01/20 00:08:27;;;;;;;4.43;3.50;;;;;;;;;;6214308;27;20050;-75
2024/01/20 00:11:29;;;;;;;5.38;3.97;;;;;;;;;;6216415;27;20053;-76
2024/01/20 00:14:35;;;;;;;4.07;3.63;;;;;;;;;;6214206;28;20050;-76
2024/01/20 00:17:38;;;;;;;5.55;4.10;;;;;;;;;;6281464;28;20054;-75
2024/01/20 00:20:45;;;;;;;5.10;3.72;;;;;;;;;;6197942;28;20065;-75
2024/01/20 00:23:48;;;;;;;5.07;4.18;;;;;;;;;;6213773;28;20056;-75
2024/01/20 00:26:50;;;;;;;4.28;3.50;;;;;;;;;;6212395;28;20038;-75
2024/01/20 00:29:52;;;;;;;4.43;3.70;;;;;;;;;;6196967;28;20054;-75
2024/01/20 00:32:54;;;;;;;4.80;3.30;;;;;;;;;;6197477;28;20496;-75
2024/01/20 00:35:57;;;;;;;6.68;5.65;;;;;;;;;;6212497;28;20060;-75
2024/01/20 00:39:00;;;;;;;4.20;3.80;;;;;;;;;;6198096;27;20061;-75
2024/01/20 00:42:03;;;;;;;6.25;5.15;;;;;;;;;;6214685;27;20084;-75
2024/01/20 00:45:06;;;;;;;5.43;4.18;;;;;;;;;;6213491;28;20126;-75
2024/01/20 00:48:08;;;;;;;6.97;4.90;;;;;;;;;;6214807;27;20045;-75
2024/01/20 00:51:11;;;;;;;5.00;4.30;;;;;;;;;;6202438;27;20041;-75
2024/01/20 00:54:14;;;;;;;4.40;3.40;;;;;;;;;;6190252;28;20053;-75
2024/01/20 00:57:16;;;;;;;5.10;3.95;;;;;;;;;;6221929;28;20048;-76
2024/01/20 01:00:19;;;;;;;4.72;3.25;;;;;;;;;;6202026;28;20062;-75
2024/01/20 01:03:21;;;;;;;5.05;4.55;;;;;;;;;;6213522;28;20184;-75
2024/01/20 01:06:23;;;;;;;3.25;2.42;;;;;;;;;;6198267;28;21059;-75
2024/01/20 01:09:26;;;;;;;4.07;2.67;;;;;;;;;;6197333;28;20046;-75
2024/01/20 01:12:29;;;;;;;3.72;3.28;;;;;;;;;;6196140;28;20049;-75
2024/01/20 01:15:32;;;;;;;4.32;3.40;;;;;;;;;;6217436;28;20133;-75
2024/01/20 01:18:34;;;;;;;4.60;3.97;;;;;;;;;;6216936;28;20051;-76
2024/01/20 01:21:36;;;;;;;4.03;2.65;;;;;;;;;;6214600;28;21231;-75
2024/01/20 01:24:38;;;;;;;3.88;3.53;;;;;;;;;;6213790;28;20045;-75
2024/01/20 01:27:41;;;;;;;3.55;2.35;;;;;;;;;;6212915;28;20444;-75
2024/01/20 01:30:44;;;;;;;3.65;2.63;;;;;;;;;;6214645;27;20075;-75
2024/01/20 01:33:46;;;;;;;4.32;3.55;;;;;;;;;;6203997;28;20111;-75
2024/01/20 01:36:49;;;;;;;4.90;4.43;;;;;;;;;;6212758;28;20060;-76
2024/01/20 01:39:51;;;;;;;3.53;2.80;;;;;;;;;;6195627;28;20046;-75
2024/01/20 01:42:56;;;;;;;4.47;4.00;;;;;;;;;;6212837;28;20049;-75
2024/01/20 01:45:58;;;;;;;4.68;2.72;;;;;;;;;;6179786;28;20046;-75
2024/01/20 01:49:00;;;;;;;3.45;2.78;;;;;;;;;;6179266;28;20579;-76
2024/01/20 01:52:02;;;;;;;3.92;2.65;;;;;;;;;;6195644;28;20201;-75
2024/01/20 01:55:05;;;;;;;3.72;3.40;;;;;;;;;;6211905;27;20471;-75
2024/01/20 01:58:07;;;;;;;5.53;5.03;;;;;;;;;;6213973;27;20572;-75
2024/01/20 02:01:09;;;;;;;4.35;3.60;;;;;;;;;;6211526;28;20182;-75
2024/01/20 02:04:12;;;;;;;3.75;2.53;;;;;;;;;;6210355;28;20133;-75
2024/01/20 02:07:15;;;;;;;3.63;2.80;;;;;;;;;;6195650;28;20053;-75
2024/01/20 02:10:18;;;;;;;5.32;2.80;;;;;;;;;;6211790;28;20061;-75
2024/01/20 02:13:20;;;;;;;4.30;2.88;;;;;;;;;;6213333;28;20084;-75
2024/01/20 02:16:23;;;;;;;4.20;3.38;;;;;;;;;;6195641;28;20052;-76
2024/01/20 02:19:25;;;;;;;4.40;3.70;;;;;;;;;;6211996;28;20053;-75
2024/01/20 02:22:27;;;;;;;5.53;4.60;;;;;;;;;;6211619;28;20058;-75
2024/01/20 02:25:29;;;;;;;5.03;4.15;;;;;;;;;;6211085;28;20455;-75
2024/01/20 02:28:31;;;;;;;3.38;2.70;;;;;;;;;;6210675;28;20049;-75
2024/01/20 02:31:34;;;;;;;4.43;4.03;;;;;;;;;;6194961;27;20084;-76
2024/01/20 02:34:39;;;;;;;6.22;4.90;;;;;;;;;;6211065;28;20188;-75
2024/01/20 02:37:42;;;;;;;8.98;3.53;;;;;;;;;;6240594;28;20049;-75
2024/01/20 02:40:44;;;;;;;5.18;3.22;;;;;;;;;;6211244;28;20198;-75
2024/01/20 02:43:46;;;;;;;4.68;4.00;;;;;;;;;;6213082;28;20045;-75
2024/01/20 02:46:48;;;;;;;4.95;4.15;;;;;;;;;;6194811;28;20046;-75
2024/01/20 02:49:51;;;;;;;5.75;5.18;;;;;;;;;;6212900;28;20042;-75
2024/01/20 02:52:54;;;;;;;3.88;2.72;;;;;;;;;;6213411;28;20433;-75
2024/01/20 02:55:57;;;;;;;5.57;3.90;;;;;;;;;;6213482;28;20122;-75
2024/01/20 02:58:59;;;;;;;5.07;4.35;;;;;;;;;;6214774;28;20057;-75
2024/01/20 03:02:02;;;;;;;5.50;3.70;;;;;;;;;;6195014;28;20052;-75
2024/01/20 03:05:05;;;;;;;4.43;3.45;;;;;;;;;;6210875;28;20106;-74
2024/01/20 03:08:07;;;;;;;5.03;3.38;;;;;;;;;;6197213;28;20062;-74
2024/01/20 03:11:09;;;;;;;5.18;3.88;;;;;;;;;;6211930;28;20222;-75
2024/01/20 03:14:12;;;;;;;4.55;3.83;;;;;;;;;;6198430;28;20412;-74
2024/01/20 03:17:14;;;;;;;4.03;3.35;;;;;;;;;;6219863;28;20121;-75
2024/01/20 03:20:17;;;;;;;3.80;2.75;;;;;;;;;;6194065;28;20161;-75
2024/01/20 03:23:19;;;;;;;4.22;3.30;;;;;;;;;;6214201;28;20069;-75
2024/01/20 03:26:22;;;;;;;4.00;2.65;;;;;;;;;;6214124;28;20078;-75
2024/01/20 03:29:24;;;;;;;4.70;3.22;;;;;;;;;;6211229;28;20051;-75
2024/01/20 03:32:26;;;;;;;5.13;3.88;;;;;;;;;;6194893;28;20045;-75
2024/01/20 03:35:28;;;;;;;3.97;2.88;;;;;;;;;;6209986;28;20060;-75
2024/01/20 03:38:30;;;;;;;3.83;2.60;;;;;;;;;;6214099;28;20065;-74
2024/01/20 03:41:32;;;;;;;4.07;2.88;;;;;;;;;;6215145;28;20049;-75
2024/01/20 03:44:34;;;;;;;4.75;3.33;;;;;;;;;;6199564;28;20086;-74
2024/01/20 03:47:36;;;;;;;3.97;3.60;;;;;;;;;;6191101;27;20182;-75
2024/01/20 03:50:38;;;;;;;4.55;3.72;;;;;;;;;;6217734;28;20555;-74
2024/01/20 03:53:41;;;;;;;3.75;2.58;;;;;;;;;;6199534;28;20278;-75
2024/01/20 03:56:44;;;;;;;2.00;1.55;;;;;;;;;;6215523;28;20095;-75
2024/01/20 03:59:46;;;;;;;3.70;2.67;;;;;;;;;;6222655;28;20558;-75
2024/01/20 04:02:48;;;;;;;3.15;2.85;;;;;;;;;;6206792;28;20085;-75
2024/01/20 04:05:51;;;;;;;3.53;2.40;;;;;;;;;;6192679;28;20607;-75
2024/01/20 04:08:53;;;;;;;5.35;4.70;;;;;;;;;;6191340;28;20041;-75
2024/01/20 04:11:55;;;;;;;4.25;3.15;;;;;;;;;;6225741;28;20060;-75
2024/01/20 04:14:57;;;;;;;2.92;2.08;;;;;;;;;;6204616;28;20127;-74
2024/01/20 04:18:00;;;;;;;4.28;2.92;;;;;;;;;;6216008;28;20049;-75
2024/01/20 04:21:03;;;;;;;4.38;3.88;;;;;;;;;;6215268;28;20804;-74
2024/01/20 04:24:06;;;;;;;4.25;3.40;;;;;;;;;;6198336;28;20162;-74
2024/01/20 04:27:08;;;;;;;4.32;2.83;;;;;;;;;;6215170;28;20045;-74
2024/01/20 04:30:11;;;;;;;3.17;1.83;;;;;;;;;;6215063;28;20085;-75
2024/01/20 04:33:14;;;;;;;4.07;3.15;;;;;;;;;;6214264;28;20053;-75
2024/01/20 04:36:16;;;;;;;3.70;2.85;;;;;;;;;;6215238;27;20053;-74
2024/01/20 04:39:19;;;;;;;4.10;2.80;;;;;;;;;;6216402;27;20112;-74
2024/01/20 04:42:21;;;;;;;2.80;2.58;;;;;;;;;;6215013;28;20079;-74
2024/01/20 04:45:23;;;;;;;4.80;2.03;;;;;;;;;;6199554;27;20057;-75
2024/01/20 04:48:26;;;;;;;2.65;1.67;;;;;;;;;;6214308;27;20675;-75
2024/01/20 04:51:29;;;;;;;3.05;2.72;;;;;;;;;;6216783;28;20712;-74
2024/01/20 04:54:31;;;;;;;1.90;1.67;;;;;;;;;;6217942;28;20170;-75
2024/01/20 04:57:33;;;;;;;3.22;1.88;;;;;;;;;;6217122;28;20435;-74
2024/01/20 05:00:35;;;;;;;3.58;3.15;;;;;;;;;;6216102;28;20056;-75
2024/01/20 05:03:38;;;;;;;2.92;2.63;;;;;;;;;;6213996;28;20470;-75
2024/01/20 05:06:40;;;;;;;2.80;2.33;;;;;;;;;;6212881;28;20054;-75
2024/01/20 05:09:43;;;;;;;4.05;3.65;;;;;;;;;;6214749;28;20073;-74
2024/01/20 05:12:45;;;;;;;4.47;3.33;;;;;;;;;;6197597;28;20488;-75
2024/01/20 05:15:47;;;;;;;3.83;3.08;;;;;;;;;;6197634;27;20480;-74
2024/01/20 05:18:51;;;;;;;3.38;2.47;;;;;;;;;;6212807;28;20555;-75
2024/01/20 05:21:54;;;;;;;3.70;2.75;;;;;;;;;;6216677;28;20060;-74
2024/01/20 05:24:56;;;;;;;3.40;2.63;;;;;;;;;;6192915;28;20373;-75
2024/01/20 05:27:58;;;;;;;6.13;5.43;;;;;;;;;;6239577;28;20054;-75
2024/01/20 05:31:00;;;;;;;5.38;3.28;;;;;;;;;;6215088;28;20493;-74
2024/01/20 05:34:02;;;;;;;4.10;3.15;;;;;;;;;;6197483;28;20519;-73
2024/01/20 05:37:05;;;;;;;5.05;3.85;;;;;;;;;;6213017;28;20045;-73
2024/01/20 05:40:07;;;;;;;3.95;3.47;;;;;;;;;;6213955;28;20054;-74
2024/01/20 05:43:10;;;;;;;5.20;4.15;;;;;;;;;;6213655;28;20170;-74
2024/01/20 05:46:12;;;;;;;3.28;2.40;;;;;;;;;;6212093;28;20042;-74
2024/01/20 05:49:14;;;;;;;13.15;6.68;;;;;;;;;;6215309;28;20053;-74
2024/01/20 05:52:16;;;;;;;4.60;3.88;;;;;;;;;;6212503;28;20050;-75
2024/01/20 05:55:18;;;;;;;4.93;3.58;;;;;;;;;;6214029;28;20109;-73
2024/01/20 05:58:20;;;;;;;3.72;2.92;;;;;;;;;;6196393;28;20050;-75
2024/01/20 06:01:22;;;;;;;4.32;2.67;;;;;;;;;;6210053;27;20140;-75
2024/01/20 06:04:24;;;;;;;3.35;2.78;;;;;;;;;;6215717;28;20053;-74
2024/01/20 06:07:27;;;;;;;7.18;4.00;;;;;;;;;;6211120;28;20045;-75
2024/01/20 06:10:30;;;;;;;3.88;2.92;;;;;;;;;;6213258;28;20763;-75
2024/01/20 06:13:33;;;;;;;4.05;2.58;;;;;;;;;;6181253;28;20082;-76
2024/01/20 06:16:38;;;;;;;4.07;3.67;;;;;;;;;;6195515;28;20053;-75
2024/01/20 06:19:40;;;;;;;6.63;5.75;;;;;;;;;;6212021;27;20041;-75
2024/01/20 06:22:43;;;;;;;3.05;2.60;;;;;;;;;;6214538;28;20179;-75
2024/01/20 06:25:46;;;;;;;5.65;3.05;;;;;;;;;;6212590;28;20440;-77
2024/01/20 06:28:49;;;;;;;7.35;4.53;;;;;;;;;;6212995;28;20107;-76
2024/01/20 06:31:52;;;;;;;6.47;2.47;;;;;;;;;;6203120;28;20722;-75
2024/01/20 06:34:54;;;;;;;5.55;3.90;;;;;;;;;;6212450;28;20080;-76
2024/01/20 06:37:58;;;;;;;4.30;2.35;;;;;;;;;;6214156;28;20072;-76
2024/01/20 07:02:12;;;;;;;8.02;7.32;;;;;;;;;;6288956;27;20766;-72
2024/01/20 07:05:15;;;;;;;4.10;2.88;;;;;;;;;;6281545;27;20497;-72
2024/01/20 07:08:18;;;;;;;3.70;2.75;;;;;;;;;;6261676;28;20515;-72
2024/01/20 07:11:22;;;;;;;5.35;3.75;;;;;;;;;;6268641;27;20086;-73
2024/01/20 07:14:25;;;;;;;12.45;6.30;;;;;;;;;;6262243;28;20093;-73
2024/01/20 07:17:27;;;;;;;10.77;9.55;;;;;;;;;;6304926;27;20057;-73
2024/01/20 07:20:30;;;;;;;10.50;9.20;;;;;;;;;;6270324;27;20072;-73
2024/01/20 07:23:33;;;;;;;9.80;8.57;;;;;;;;;;6273993;27;20052;-73
2024/01/20 07:26:35;;;;;;;8.68;7.88;;;;;;;;;;6254932;27;20055;-72
2024/01/20 07:29:38;;;;;;;8.55;8.00;;;;;;;;;;6273573;27;20045;-72
2024/01/20 07:32:40;;;;;;;6.55;6.05;;;;;;;;;;6291285;27;20041;-73
2024/01/20 07:35:43;;;;;;;3.15;2.60;;;;;;;;;;6247770;28;20071;-73
2024/01/20 07:38:46;;;;;;;8.20;7.43;;;;;;;;;;6253826;27;20096;-72
2024/01/20 07:41:48;;;;;;;9.10;7.70;;;;;;;;;;6252245;28;20053;-74
2024/01/20 07:44:50;;;;;;;9.65;6.05;;;;;;;;;;6265721;27;20480;-76
2024/01/20 07:47:53;;;;;;;4.63;2.67;;;;;;;;;;6273683;27;20786;-74
2024/01/20 07:50:55;;;;;;;5.45;2.53;;;;;;;;;;6232256;27;20053;-72
2024/01/20 07:53:57;;;;;;;5.00;4.43;;;;;;;;;;6284284;27;20104;-74
2024/01/20 07:56:59;;;;;;;6.60;4.03;;;;;;;;;;6246350;28;20052;-74
2024/01/20 08:00:02;;;;;;;10.13;3.58;;;;;;;;;;6262294;27;20040;-74
2024/01/20 08:03:08;;;;;;;21.13;7.00;;;;;;;;;;6253526;27;20049;-73
2024/01/20 08:06:10;;;;;;;5.18;3.70;;;;;;;;;;6256656;27;20069;-73
2024/01/20 08:09:13;;;;;;;6.25;5.00;;;;;;;;;;6255328;27;20052;-74
2024/01/20 08:12:15;;;;;;;5.05;3.63;;;;;;;;;;6242636;27;20049;-74
2024/01/20 08:15:18;;;;;;;6.72;3.40;;;;;;;;;;6243685;27;20077;-73
2024/01/20 08:18:20;;;;;;;9.13;6.00;;;;;;;;;;6273827;27;20037;-73
2024/01/20 08:35:18;;;;;;;13.05;11.65;;;;;;;;;;6325926;27;21059;-74
2024/01/20 08:38:21;;;;;;;14.45;9.07;;;;;;;;;;6305002;28;20045;-73
2024/01/20 08:41:26;;;;;;;10.60;6.25;;;;;;;;;;6310408;28;20086;-73
2024/01/20 08:44:28;;;;;;;7.63;5.75;;;;;;;;;;6306192;28;20817;-74
2024/01/20 08:47:30;;;;;;;6.10;3.95;;;;;;;;;;6297754;28;20037;-74
2024/01/20 08:50:32;;;;;;;10.20;9.32;;;;;;;;;;6295047;28;20559;-74
2024/01/20 08:53:35;;;;;;;5.35;4.82;;;;;;;;;;6299344;28;20048;-74
2024/01/20 08:56:37;;;;;;;4.10;2.88;;;;;;;;;;6311160;28;20048;-73
2024/01/20 08:59:40;;;;;;;6.80;5.10;;;;;;;;;;6292847;28;20048;-74
2024/01/20 09:02:43;;;;;;;5.07;4.05;;;;;;;;;;6283229;28;20055;-74
2024/01/20 09:05:45;;;;;;;9.63;5.50;;;;;;;;;;6299581;28;20147;-75
2024/01/20 09:08:47;;;;;;;6.93;5.22;;;;;;;;;;6300625;28;20048;-73
2024/01/20 09:11:51;;;;;;;6.18;4.57;;;;;;;;;;6302854;28;20828;-73
2024/01/20 09:14:55;;;;;;;8.50;6.20;;;;;;;;;;6296515;28;20045;-74
2024/01/20 09:17:57;;;;;;;6.53;5.88;;;;;;;;;;6302655;28;20495;-74
2024/01/20 09:20:59;;;;;;;8.35;5.70;;;;;;;;;;6302274;28;20047;-73
2024/01/20 09:24:02;;;;;;;8.75;3.92;;;;;;;;;;6297395;28;20578;-74
2024/01/20 09:27:08;;;;;;;8.15;5.68;;;;;;;;;;6295475;28;20056;-74
2024/01/20 09:30:10;;;;;;;7.57;5.63;;;;;;;;;;6281472;28;20076;-74
2024/01/20 09:33:12;;;;;;;6.13;4.90;;;;;;;;;;6302956;28;20056;-74
2024/01/20 09:36:18;;;;;;;5.30;4.40;;;;;;;;;;6267755;28;20036;-74
2024/01/20 09:39:22;;;;;;;5.78;4.22;;;;;;;;;;6287191;28;20051;-74
2024/01/20 09:42:27;;;;;;;6.32;4.10;;;;;;;;;;6282699;28;20049;-75
2024/01/20 09:45:29;;;;;;;6.95;5.18;;;;;;;;;;6272626;28;20049;-74
2024/01/20 09:48:31;;;;;;;8.52;5.32;;;;;;;;;;6280367;28;20083;-75
2024/01/20 09:51:35;;;;;;;7.97;7.13;;;;;;;;;;6263942;28;20087;-74
2024/01/20 09:55:14;;;;;;;10.98;6.47;;;;;;;;;;6279716;28;20127;-75
2024/01/20 09:58:17;;;;;;;7.95;6.15;;;;;;;;;;6277076;28;20112;-75
2024/01/20 10:01:20;;;;;;;8.77;6.03;;;;;;;;;;6285280;28;20519;-75
2024/01/20 10:04:24;;;;;;;12.35;7.50;;;;;;;;;;6282425;28;20043;-75
2024/01/20 10:07:29;;;;;;;9.63;7.43;;;;;;;;;;6279938;28;20135;-75
2024/01/20 10:10:32;;;;;;;8.27;5.60;;;;;;;;;;6272790;28;20555;-74
2024/01/20 10:13:34;;;;;;;6.63;5.80;;;;;;;;;;6264172;28;20048;-75
2024/01/20 10:16:39;;;;;;;8.35;5.40;;;;;;;;;;6252359;28;20059;-75
2024/01/20 10:19:41;;;;;;;13.20;7.28;;;;;;;;;;6279221;28;20162;-75
2024/01/20 10:22:48;;;;;;;10.25;6.53;;;;;;;;;;6278644;28;20581;-75
2024/01/20 10:26:01;;;;;;;11.15;6.68;;;;;;;;;;6284060;28;20040;-75
2024/01/20 10:29:04;;;;;;;12.75;7.22;;;;;;;;;;6282491;28;20953;-75
2024/01/20 10:32:08;;;;;;;15.02;10.43;;;;;;;;;;6277426;28;20053;-74
2024/01/20 10:35:10;;;;;;;11.88;7.68;;;;;;;;;;6268283;28;20044;-75
2024/01/20 10:38:14;;;;;;;16.80;11.38;;;;;;;;;;6266861;28;20103;-74
2024/01/20 10:41:19;;;;;;;10.98;8.52;;;;;;;;;;6271692;28;20060;-74
2024/01/20 10:44:24;;;;;;;11.90;9.13;;;;;;;;;;6283076;28;20048;-74
2024/01/20 10:47:36;;;;;;;11.25;8.80;;;;;;;;;;6248993;28;20056;-74
2024/01/20 10:50:41;;;;;;;14.75;10.23;;;;;;;;;;6244702;28;20062;-74
2024/01/20 10:53:43;;;;;;;;;;;;;;;;;;6276846;28;20101;-74
2024/01/20 10:56:46;;;;;;;8.63;6.35;;;;;;;;;;6263195;28;19924;-74
2024/01/20 10:59:50;;;;;;;14.50;8.82;;;;;;;;;;6258651;28;20608;-75
2024/01/20 11:02:52;;;;;;;9.00;7.63;;;;;;;;;;6284042;28;20040;-74
2024/01/20 11:05:54;;;;;;;12.27;7.38;;;;;;;;;;6294055;28;20135;-74
2024/01/20 11:09:00;;;;;;;16.48;11.18;;;;;;;;;;6280460;28;20515;-74
2024/01/20 11:12:06;;;;;;;14.05;9.02;;;;;;;;;;6284669;28;20063;-74
2024/01/20 11:15:16;;;;;;;13.85;7.90;;;;;;;;;;6279712;28;20047;-74
2024/01/20 11:18:20;;;;;;;18.55;11.48;;;;;;;;;;6279186;28;20048;-75
2024/01/20 11:21:23;;;;;;;13.68;8.32;;;;;;;;;;6260148;28;20044;-75
2024/01/20 11:24:42;;;;;;;12.10;10.15;;;;;;;;;;6281053;28;20079;-75
2024/01/20 11:27:51;;;;;;;10.90;6.05;;;;;;;;;;6282198;28;20603;-75
2024/01/20 11:30:53;;;;;;;18.42;10.52;;;;;;;;;;6280979;28;20109;-75
2024/01/20 11:33:57;;;;;;;11.60;6.60;;;;;;;;;;6273996;28;20097;-75
2024/01/20 11:37:00;;;;;;;10.68;6.43;;;;;;;;;;6274903;28;20063;-75
2024/01/20 11:40:07;;;;;;;14.27;8.75;;;;;;;;;;6273208;28;20064;-75
2024/01/20 11:43:12;;;;;;;13.13;9.07;;;;;;;;;;6240188;28;20546;-75
2024/01/20 11:46:15;;;;;;;9.85;8.05;;;;;;;;;;6282065;28;20537;-75
2024/01/20 11:49:18;;;;;;;11.05;6.53;;;;;;;;;;6293347;28;20161;-76
2024/01/20 11:52:22;;;;;;;13.15;8.70;;;;;;;;;;6281734;28;20070;-73
2024/01/20 11:55:26;;;;;;;19.02;11.70;;;;;;;;;;6278965;28;20040;-74
2024/01/20 11:58:30;;;;;;;25.45;12.70;;;;;;;;;;6278756;28;20743;-73
2024/01/20 12:01:32;;;;;;;16.00;8.13;;;;;;;;;;6283475;28;20172;-71
2024/01/20 12:04:34;;;;;;;12.57;6.68;;;;;;;;;;6282643;28;20040;-72
2024/01/20 12:07:36;;;;;;;17.90;11.63;;;;;;;;;;6280105;28;20040;-72
2024/01/20 12:10:38;;;;;;;19.15;11.90;;;;;;;;;;6280152;28;20113;-72
2024/01/20 12:13:40;;;;;;;19.60;10.43;;;;;;;;;;6280499;28;20039;-71
2024/01/20 12:16:44;;;;;;;15.20;10.05;;;;;;;;;;6273216;28;20048;-71
2024/01/20 12:19:46;;;;;;;11.82;8.20;;;;;;;;;;6280688;28;20583;-70
2024/01/20 12:22:49;;;;;;;14.00;8.55;;;;;;;;;;6295446;28;20055;-71
2024/01/20 12:25:52;;;;;;;15.38;9.40;;;;;;;;;;6280850;28;20117;-72
2024/01/20 12:28:55;;;;;;;14.57;8.27;;;;;;;;;;6273320;28;20052;-72
2024/01/20 12:31:58;;;;;;;19.27;12.65;;;;;;;;;;6280776;28;20036;-71
2024/01/20 12:35:00;;;;;;;17.42;8.90;;;;;;;;;;6282217;28;20047;-71
2024/01/20 12:38:02;;;;;;;17.25;10.57;;;;;;;;;;6277482;28;20134;-72
2024/01/20 12:41:05;;;;;;;13.00;8.75;;;;;;;;;;6278286;28;20044;-71
2024/01/20 12:44:07;;;;;;;16.58;9.93;;;;;;;;;;6273210;28;20049;-71
2024/01/20 12:47:09;;;;;;;15.20;10.02;;;;;;;;;;6279073;28;20049;-71
2024/01/20 12:50:11;;;;;;;27.70;14.82;;;;;;;;;;6279263;28;20048;-71
2024/01/20 12:53:14;;;;;;;18.45;9.30;;;;;;;;;;6281657;28;20040;-71
2024/01/20 12:56:16;;;;;;;17.98;11.70;;;;;;;;;;6280093;28;20053;-69
2024/01/20 12:59:18;;;;;;;18.75;12.88;;;;;;;;;;6287882;28;20097;-73
2024/01/20 13:02:20;;;;;;;15.65;9.38;;;;;;;;;;6260903;28;20079;-70
2024/01/20 13:05:23;;;;;;;19.30;11.18;;;;;;;;;;6276013;28;20040;-70
2024/01/20 13:08:25;;;;;;;14.70;8.52;;;;;;;;;;6272054;28;20135;-71
2024/01/20 13:11:29;;;;;;;12.75;8.27;;;;;;;;;;6283208;28;20044;-71
2024/01/20 13:14:31;;;;;;;14.25;9.43;;;;;;;;;;6281728;28;20048;-70
2024/01/20 13:17:33;;;;;;;15.98;9.77;;;;;;;;;;6279007;28;20174;-70
2024/01/20 13:20:35;;;;;;;12.63;9.27;;;;;;;;;;6283544;28;20040;-72
2024/01/20 13:23:38;;;;;;;20.30;12.23;;;;;;;;;;6279292;28;20040;-70
2024/01/20 13:26:40;;;;;;;17.90;12.25;;;;;;;;;;6268596;28;20865;-70
2024/01/20 13:29:42;;;;;;;17.25;10.77;;;;;;;;;;6283135;28;20556;-69
2024/01/20 13:32:44;;;;;;;16.02;10.43;;;;;;;;;;6279793;28;20044;-70
2024/01/20 13:35:46;;;;;;;16.50;10.85;;;;;;;;;;6285585;28;20032;-70
2024/01/20 13:38:48;;;;;;;16.77;11.52;;;;;;;;;;6277862;28;20041;-70
2024/01/20 13:41:50;;;;;;;14.10;10.00;;;;;;;;;;6284324;28;20044;-70
2024/01/20 13:44:53;;;;;;;21.20;13.05;;;;;;;;;;6280153;28;20109;-69
2024/01/20 13:47:55;;;;;;;19.48;10.55;;;;;;;;;;6283824;28;20055;-70
2024/01/20 13:50:57;;;;;;;8.45;6.32;;;;;;;;;;6285175;28;20049;-70
2024/01/20 13:53:59;;;;;;;10.98;7.78;;;;;;;;;;6276468;28;20044;-70
2024/01/20 13:57:02;;;;;;;11.23;8.75;;;;;;;;;;6278196;28;20539;-71
2024/01/20 14:00:05;;;;;;;17.20;11.18;;;;;;;;;;6297417;28;20044;-70
2024/01/20 14:03:08;;;;;;;18.17;12.90;;;;;;;;;;6279273;28;20052;-71
2024/01/20 14:06:10;;;;;;;19.38;11.68;;;;;;;;;;6275946;28;20057;-72
2024/01/20 14:09:13;;;;;;;14.85;9.85;;;;;;;;;;6272706;28;20049;-70
2024/01/20 14:12:15;;;;;;;20.30;9.95;;;;;;;;;;6271803;28;20075;-70
2024/01/20 14:15:18;;;;;;;15.10;10.10;;;;;;;;;;6273096;28;20120;-71
2024/01/20 14:18:20;;;;;;;14.32;9.32;;;;;;;;;;6273881;28;20059;-71
2024/01/20 14:21:24;;;;;;;16.13;9.45;;;;;;;;;;6273702;28;20801;-71
2024/01/20 14:24:27;;;;;;;23.73;12.95;;;;;;;;;;6256559;28;20076;-71
2024/01/20 14:27:30;;;;;;;20.13;12.13;;;;;;;;;;6277908;28;20049;-69
2024/01/20 14:30:32;;;;;;;17.02;11.82;;;;;;;;;;6272918;28;20538;-70
2024/01/20 14:33:35;;;;;;;19.15;11.82;;;;;;;;;;6277017;28;20125;-71
2024/01/20 14:36:37;;;;;;;18.52;11.13;;;;;;;;;;6264254;28;20048;-71
2024/01/20 14:39:39;;;;;;;24.23;14.05;;;;;;;;;;6275324;28;20060;-71
2024/01/20 14:42:42;;;;;;;56.45;26.60;;;;;;;;;;6276541;28;20081;-71
2024/01/20 14:45:44;;;;;;;40.58;23.77;;;;;;;;;;6279040;28;20583;-71
2024/01/20 14:48:46;;;;;;;47.63;21.50;;;;;;;;;;6259882;28;20048;-71
2024/01/20 14:51:48;;;;;;;29.98;18.80;;;;;;;;;;6273877;28;20040;-71
2024/01/20 14:54:51;;;;;;;18.25;13.15;;;;;;;;;;6276915;28;20048;-72
2024/01/20 14:57:53;;;;;;;22.85;13.90;;;;;;;;;;6281371;28;20048;-71
2024/01/20 15:00:55;;;;;;;45.65;24.13;;;;;;;;;;6276016;28;20044;-69
2024/01/20 15:03:57;;;;;;;79.30;33.63;;;;;;;;;;6276019;28;20131;-68
2024/01/20 15:07:00;;;;;;;237.95;92.22;;;;;;;;;;6279785;28;20040;-70
2024/01/20 15:10:03;;;;;;;42.63;22.02;;;;;;;;;;6282280;28;20186;-70
2024/01/20 15:13:06;;;;;;;18.95;14.80;;;;;;;;;;6278641;28;20575;-71
2024/01/20 15:16:08;;;;;;;15.88;9.85;;;;;;;;;;6274255;28;20091;-70
2024/01/20 15:19:10;;;;;;;16.50;10.75;;;;;;;;;;6279890;28;20197;-71
2024/01/20 15:22:12;;;;;;;17.77;11.63;;;;;;;;;;6275289;28;20072;-71
2024/01/20 15:25:15;;;;;;;64.80;36.78;;;;;;;;;;6278535;28;20040;-71
2024/01/20 15:28:18;;;;;;;14.90;9.32;;;;;;;;;;6275015;28;20056;-71
2024/01/20 15:31:20;;;;;;;21.42;12.73;;;;;;;;;;6276367;28;20036;-70
2024/01/20 15:34:22;;;;;;;20.80;14.50;;;;;;;;;;6277246;28;20045;-70
2024/01/20 15:37:24;;;;;;;26.63;14.35;;;;;;;;;;6276308;28;20058;-69
2024/01/20 15:40:26;;;;;;;17.92;11.05;;;;;;;;;;6278434;28;20048;-71
2024/01/20 15:43:28;;;;;;;23.23;12.90;;;;;;;;;;6275045;28;20137;-70
2024/01/20 15:46:32;;;;;;;19.48;11.88;;;;;;;;;;6277537;28;20049;-70
2024/01/20 15:49:34;;;;;;;21.40;14.07;;;;;;;;;;6274688;28;20733;-69
2024/01/20 15:52:36;;;;;;;21.15;12.95;;;;;;;;;;6273035;28;20052;-71
2024/01/20 15:55:38;;;;;;;23.00;13.70;;;;;;;;;;6272667;28;20052;-72
2024/01/20 15:58:40;;;;;;;36.90;23.58;;;;;;;;;;6242585;28;20048;-72
2024/01/20 16:01:43;;;;;;;33.97;20.05;;;;;;;;;;6257084;28;20094;-72
2024/01/20 16:04:46;;;;;;;20.55;13.82;;;;;;;;;;6273743;28;20041;-70
2024/01/20 16:07:48;;;;;;;38.72;24.30;;;;;;;;;;6277131;28;20045;-70
2024/01/20 16:10:50;;;;;;;32.38;21.35;;;;;;;;;;6277053;28;20536;-69
2024/01/20 16:13:52;;;;;;;20.52;13.07;;;;;;;;;;6274843;28;20044;-71
2024/01/20 16:16:55;;;;;;;17.08;10.88;;;;;;;;;;6273901;28;20102;-70
2024/01/20 16:19:57;;;;;;;37.13;22.98;;;;;;;;;;6260609;28;20131;-70
2024/01/20 16:22:59;;;;;;;20.63;14.82;;;;;;;;;;6275006;28;20056;-70
2024/01/20 16:26:01;;;;;;;25.63;14.52;;;;;;;;;;6276466;28;20508;-70
2024/01/20 16:29:03;;;;;;;25.33;15.77;;;;;;;;;;6270871;28;20559;-70
2024/01/20 16:32:09;;;;;;;26.48;14.63;;;;;;;;;;6269014;28;20084;-70
2024/01/20 16:35:11;;;;;;;37.72;22.27;;;;;;;;;;6273329;28;20053;-71
2024/01/20 16:38:13;;;;;;;32.30;19.75;;;;;;;;;;6275300;28;20048;-70
2024/01/20 16:41:15;;;;;;;17.80;13.43;;;;;;;;;;6277308;28;20048;-70
2024/01/20 16:44:18;;;;;;;24.83;15.27;;;;;;;;;;6279396;28;20048;-70
2024/01/20 16:47:20;;;;;;;23.88;13.68;;;;;;;;;;6277178;28;20060;-70
2024/01/20 16:50:22;;;;;;;23.63;18.95;;;;;;;;;;6278455;28;20446;-70
2024/01/20 16:53:25;;;;;;;24.30;16.02;;;;;;;;;;6277839;28;20146;-70
2024/01/20 16:56:27;;;;;;;20.02;14.45;;;;;;;;;;6276878;28;20048;-70
2024/01/20 16:59:30;;;;;;;27.17;18.13;;;;;;;;;;6279071;28;20055;-70
2024/01/20 17:02:33;;;;;;;24.77;14.70;;;;;;;;;;6276965;28;20040;-70
2024/01/20 17:05:36;;;;;;;22.98;17.60;;;;;;;;;;6295532;28;20033;-70
2024/01/20 17:08:38;;;;;;;26.52;14.98;;;;;;;;;;6297499;28;20044;-69
2024/01/20 17:11:44;;;;;;;22.60;15.98;;;;;;;;;;6277581;28;20061;-69
2024/01/20 17:14:46;;;;;;;26.67;15.27;;;;;;;;;;6275934;28;20836;-69
2024/01/20 17:17:49;;;;;;;44.88;20.52;;;;;;;;;;6276157;28;20041;-69
2024/01/20 17:20:51;;;;;;;35.47;21.98;;;;;;;;;;6274831;28;20683;-69
2024/01/20 17:23:54;;;;;;;26.83;13.60;;;;;;;;;;6278058;28;20045;-69
2024/01/20 17:26:56;;;;;;;18.58;10.93;;;;;;;;;;6274608;28;20147;-69
2024/01/20 17:29:58;;;;;;;24.70;14.30;;;;;;;;;;6278199;28;20045;-69
2024/01/20 17:33:00;;;;;;;21.48;12.95;;;;;;;;;;6278869;28;20045;-69
2024/01/20 17:36:04;;;;;;;37.83;19.00;;;;;;;;;;6281233;28;20075;-70
2024/01/20 17:39:06;;;;;;;35.53;13.50;;;;;;;;;;6274966;28;20044;-70
2024/01/20 17:42:09;;;;;;;49.83;25.40;;;;;;;;;;6279805;28;20812;-71
2024/01/20 17:45:12;;;;;;;29.05;12.50;;;;;;;;;;6284519;28;20089;-70
2024/01/20 17:48:14;;;;;;;38.13;20.95;;;;;;;;;;6280072;28;20049;-70
2024/01/20 17:51:16;;;;;;;26.77;15.52;;;;;;;;;;6283085;28;20056;-70
2024/01/20 17:54:18;;;;;;;29.92;18.85;;;;;;;;;;6276386;28;20053;-71
2024/01/20 17:57:20;;;;;;;27.33;13.88;;;;;;;;;;6281483;28;20048;-69
2024/01/20 18:00:23;;;;;;;21.85;10.95;;;;;;;;;;6278751;28;20053;-70
2024/01/20 18:03:28;;;;;;;25.73;12.82;;;;;;;;;;6275885;28;20044;-69
2024/01/20 18:06:31;;;;;;;21.58;11.85;;;;;;;;;;6275325;28;20036;-69
2024/01/20 18:09:33;;;;;;;20.55;9.88;;;;;;;;;;6275565;28;20063;-69
2024/01/20 18:12:38;;;;;;;26.80;11.52;;;;;;;;;;6282124;28;20058;-69
2024/01/20 18:15:43;;;;;;;20.25;11.75;;;;;;;;;;6277022;28;20045;-69
2024/01/20 18:18:46;;;;;;;17.92;11.07;;;;;;;;;;6279112;28;20057;-70
2024/01/20 18:21:48;;;;;;;56.70;29.58;;;;;;;;;;6278195;28;20691;-69
2024/01/20 18:24:50;;;;;;;23.73;12.43;;;;;;;;;;6276900;28;20097;-70
2024/01/20 18:27:52;;;;;;;20.00;10.98;;;;;;;;;;6279272;28;20068;-70
2024/01/20 18:30:54;;;;;;;18.38;10.20;;;;;;;;;;6275545;28;20057;-69
2024/01/20 18:33:57;;;;;;;20.58;12.68;;;;;;;;;;6281398;28;20149;-69
2024/01/20 18:37:00;;;;;;;22.00;13.48;;;;;;;;;;6276264;28;20036;-69
2024/01/20 18:40:04;;;;;;;30.15;16.65;;;;;;;;;;6290643;28;20048;-69